createdAt,value
2022-11-17T00:00:27.578Z,100364.41
2022-11-17T00:03:28.892Z,100362.78
2022-11-17T00:06:30.253Z,100351.75
2022-11-17T00:09:31.568Z,100346.56
2022-11-17T00:12:33.331Z,100336.31
2022-11-17T00:15:34.710Z,100333.69
2022-11-17T00:18:36.984Z,100325.16
2022-11-17T00:21:38.314Z,100324.22
2022-11-17T00:24:39.750Z,100316.56
2022-11-17T00:27:41.287Z,100319.00
2022-11-17T00:30:44.016Z,100309.59
2022-11-17T00:33:45.470Z,100302.00
2022-11-17T00:36:52.403Z,100312.22
2022-11-17T00:39:59.298Z,100329.28
2022-11-17T00:43:01.986Z,100296.94
2022-11-17T00:46:03.375Z,100298.59
2022-11-17T00:49:05.942Z,100301.06
2022-11-17T00:52:07.297Z,100291.03
2022-11-17T00:55:08.790Z,100295.19
2022-11-17T00:58:10.151Z,100291.81
2022-11-17T01:01:12.213Z,100301.19
2022-11-17T01:04:14.788Z,100284.22
2022-11-17T01:07:16.135Z,100278.28
2022-11-17T01:10:17.624Z,100272.28
2022-11-17T01:13:19.136Z,100257.78
2022-11-17T01:16:20.922Z,100272.34
2022-11-17T01:19:23.648Z,100250.97
2022-11-17T01:22:24.998Z,100228.00
2022-11-17T01:25:26.372Z,100230.50
2022-11-17T01:28:27.710Z,100226.34
2022-11-17T01:31:37.717Z,100230.56
2022-11-17T01:34:39.085Z,100225.59
2022-11-17T01:37:40.411Z,100220.47
2022-11-17T01:40:41.758Z,100223.84
2022-11-17T01:43:46.083Z,100227.38
2022-11-17T01:46:48.314Z,100217.16
2022-11-17T01:49:54.473Z,100214.63
2022-11-17T01:52:59.191Z,100219.03
2022-11-17T01:56:06.503Z,100203.81
2022-11-17T01:59:16.078Z,100206.38
2022-11-17T02:02:19.366Z,100211.56
2022-11-17T02:05:52.359Z,100213.38
2022-11-17T02:08:54.984Z,100199.69
2022-11-17T02:11:58.638Z,100186.91
2022-11-17T02:15:00.842Z,100191.19
2022-11-17T02:18:02.732Z,100188.69
2022-11-17T02:21:29.399Z,100177.72
2022-11-17T02:24:50.850Z,100181.97
2022-11-17T02:28:06.462Z,100172.66
2022-11-17T02:31:45.538Z,100177.78
2022-11-17T02:35:06.035Z,100166.91
2022-11-17T02:38:16.396Z,100162.63
2022-11-17T02:41:32.663Z,100155.09
2022-11-17T02:44:59.927Z,100156.09
2022-11-17T02:48:05.226Z,100126.22
2022-11-17T02:51:11.979Z,100142.41
2022-11-17T02:54:14.303Z,100116.94
2022-11-17T02:57:37.450Z,100123.91
2022-11-17T03:00:49.360Z,100129.03
2022-11-17T03:04:08.231Z,100123.97
2022-11-17T03:07:41.814Z,100128.25
2022-11-17T03:11:01.367Z,100123.13
2022-11-17T03:14:20.926Z,100133.47
2022-11-17T03:17:30.402Z,100105.34
2022-11-17T03:20:53.603Z,100116.53
2022-11-17T03:24:09.163Z,100090.28
2022-11-17T03:27:19.159Z,100082.59
2022-11-17T03:30:20.599Z,100078.25
2022-11-17T03:33:24.551Z,100081.63
2022-11-17T03:36:31.797Z,100077.53
2022-11-17T03:39:36.295Z,100081.81
2022-11-17T03:42:41.808Z,100075.81
2022-11-17T03:45:49.167Z,100089.53
2022-11-17T03:48:55.440Z,100098.94
2022-11-17T03:51:57.619Z,100082.69
2022-11-17T03:54:59.035Z,100076.88
2022-11-17T03:58:07.325Z,100078.66
2022-11-17T04:01:08.864Z,100070.22
2022-11-17T04:04:18.711Z,100072.84
2022-11-17T04:07:20.162Z,100072.94
2022-11-17T04:10:23.853Z,100077.22
2022-11-17T04:13:25.191Z,100074.72
2022-11-17T04:16:26.673Z,100066.34
2022-11-17T04:19:28.015Z,100057.91
2022-11-17T04:22:29.373Z,100069.00
2022-11-17T04:25:30.704Z,100045.34
2022-11-17T04:28:34.642Z,100058.06
2022-11-17T04:31:36.111Z,100059.84
2022-11-17T04:34:37.442Z,100031.81
2022-11-17T04:37:38.763Z,100035.97
2022-11-17T04:40:40.098Z,100038.63
2022-11-17T04:43:41.406Z,100032.69
2022-11-17T04:46:44.370Z,100038.69
2022-11-17T04:49:45.694Z,100072.81
2022-11-17T04:52:47.039Z,100037.81
2022-11-17T04:55:48.421Z,100020.88
2022-11-17T04:58:50.334Z,100026.03
2022-11-17T05:01:51.894Z,100009.03
2022-11-17T05:04:53.276Z,100001.44
2022-11-17T05:07:54.627Z,100009.16
2022-11-17T05:10:57.861Z,100015.13
2022-11-17T05:14:00.166Z,100013.59
2022-11-17T05:17:08.399Z,100017.00
2022-11-17T05:20:11.028Z,100013.59
2022-11-17T05:23:12.367Z,100013.59
2022-11-17T05:26:13.707Z,100019.50
2022-11-17T05:29:17.400Z,99995.84
2022-11-17T05:32:18.852Z,99993.31
2022-11-17T05:35:20.210Z,99991.63
2022-11-17T05:38:21.862Z,100004.41
2022-11-17T05:41:24.216Z,100013.66
2022-11-17T05:44:25.617Z,100001.81
2022-11-17T05:47:27.043Z,100001.03
2022-11-17T05:50:28.414Z,99998.53
2022-11-17T05:53:36.008Z,100002.75
2022-11-17T05:56:49.571Z,99996.03
2022-11-17T05:59:57.406Z,100004.53
2022-11-17T06:03:02.636Z,99991.81
2022-11-17T06:06:04.179Z,99985.16
2022-11-17T06:09:05.523Z,99984.34
2022-11-17T06:12:07.170Z,99990.19
2022-11-17T06:15:09.011Z,99984.34
2022-11-17T06:18:17.443Z,99986.03
2022-11-17T06:21:18.867Z,99991.19
2022-11-17T06:24:20.502Z,99992.16
2022-11-17T06:27:22.425Z,100013.53
2022-11-17T06:30:23.855Z,100001.53
2022-11-17T06:33:29.097Z,99993.94
2022-11-17T06:36:30.877Z,99990.44
2022-11-17T06:39:32.221Z,99987.16
2022-11-17T06:42:33.571Z,99967.59
2022-11-17T06:45:37.732Z,99973.50
2022-11-17T06:48:39.303Z,100014.47
2022-11-17T06:51:44.896Z,99976.94
2022-11-17T06:54:46.633Z,99970.16
2022-11-17T06:57:53.205Z,99976.25
2022-11-17T07:01:04.628Z,99967.69
2022-11-17T07:04:06.019Z,99967.75
2022-11-17T07:07:07.447Z,99969.34
2022-11-17T07:10:09.485Z,99973.63
2022-11-17T07:13:10.855Z,99972.78
2022-11-17T07:16:23.267Z,99983.84
2022-11-17T07:19:25.299Z,99968.63
2022-11-17T07:22:26.658Z,99975.41
2022-11-17T07:25:27.995Z,99960.06
2022-11-17T07:28:29.691Z,99956.66
2022-11-17T07:31:31.042Z,99955.03
2022-11-17T07:34:32.361Z,99954.16
2022-11-17T07:37:33.715Z,99962.63
2022-11-17T07:40:35.086Z,99951.59
2022-11-17T07:43:36.606Z,99954.97
2022-11-17T07:46:38.024Z,99930.31
2022-11-17T07:49:39.360Z,99933.78
2022-11-17T07:52:41.691Z,99940.59
2022-11-17T07:55:43.212Z,99948.19
2022-11-17T07:58:44.532Z,99934.59
2022-11-17T08:01:45.856Z,99952.53
2022-11-17T08:04:47.216Z,99948.19
2022-11-17T08:07:55.928Z,99933.00
2022-11-17T08:11:04.325Z,99945.75
2022-11-17T08:14:05.775Z,99933.00
2022-11-17T08:17:07.236Z,99935.63
2022-11-17T08:20:09.000Z,99928.69
2022-11-17T08:23:10.390Z,99949.03
2022-11-17T08:26:11.771Z,99921.09
2022-11-17T08:29:13.350Z,99926.13
2022-11-17T08:32:14.729Z,99919.41
2022-11-17T08:35:16.542Z,99931.31
2022-11-17T08:38:17.931Z,99914.19
2022-11-17T08:41:19.308Z,99931.25
2022-11-17T08:44:20.689Z,99910.91
2022-11-17T08:47:22.076Z,99926.06
2022-11-17T08:50:23.648Z,99924.34
2022-11-17T08:53:25.012Z,99906.47
2022-11-17T08:56:26.419Z,99924.34
2022-11-17T08:59:27.832Z,99938.91
2022-11-17T09:02:29.220Z,99914.19
2022-11-17T09:05:30.668Z,99931.94
2022-11-17T09:08:55.941Z,99929.38
2022-11-17T09:11:53.507Z,99949.81
2022-11-17T09:14:54.897Z,99945.63
2022-11-17T09:17:56.217Z,99931.06
2022-11-17T09:21:01.828Z,99921.97
2022-11-17T09:24:03.452Z,99908.31
2022-11-17T09:27:04.896Z,99941.50
2022-11-17T09:30:07.217Z,99909.97
2022-11-17T09:33:08.605Z,99922.56
2022-11-17T09:36:11.269Z,99905.47
2022-11-17T09:39:12.673Z,99906.25
2022-11-17T09:42:22.102Z,99912.03
2022-11-17T09:45:34.007Z,99903.63
2022-11-17T09:48:42.264Z,99896.59
2022-11-17T09:51:47.070Z,99894.03
2022-11-17T09:54:53.386Z,99907.59
2022-11-17T09:58:13.098Z,99894.03
2022-11-17T10:01:19.784Z,99894.19
2022-11-17T10:04:21.311Z,99896.91
2022-11-17T10:07:23.113Z,99902.16
2022-11-17T10:10:37.079Z,99901.41
2022-11-17T10:13:38.731Z,99899.00
2022-11-17T10:16:49.981Z,99901.00
2022-11-17T10:19:51.334Z,99874.06
2022-11-17T10:22:54.105Z,99918.16
2022-11-17T10:25:58.844Z,99880.88
2022-11-17T10:29:12.972Z,99869.72
2022-11-17T10:32:15.337Z,99879.97
2022-11-17T10:35:28.111Z,99845.19
2022-11-17T10:38:30.768Z,99876.75
2022-11-17T10:41:44.120Z,99870.72
2022-11-17T10:44:49.000Z,99869.91
2022-11-17T10:47:50.825Z,99863.00
2022-11-17T10:51:01.046Z,99868.81
2022-11-17T10:54:06.945Z,99862.06
2022-11-17T10:57:14.136Z,99867.88
2022-11-17T11:00:36.173Z,99853.38
2022-11-17T11:03:48.375Z,99862.78
2022-11-17T11:07:10.434Z,99846.63
2022-11-17T11:10:32.320Z,99863.84
2022-11-17T11:13:51.890Z,99832.50
2022-11-17T11:16:54.818Z,99836.84
2022-11-17T11:19:56.441Z,99838.47
2022-11-17T11:23:03.513Z,99847.06
2022-11-17T11:26:22.621Z,99823.16
2022-11-17T11:29:42.770Z,99835.84
2022-11-17T11:33:05.579Z,99816.19
2022-11-17T11:36:06.988Z,99801.41
2022-11-17T11:39:31.552Z,99819.13
2022-11-17T11:42:47.022Z,99810.53
2022-11-17T11:45:53.849Z,99803.59
2022-11-17T11:49:02.368Z,99815.50
2022-11-17T11:52:10.179Z,99812.00
2022-11-17T11:55:24.095Z,99836.53
2022-11-17T11:58:25.453Z,99833.03
2022-11-17T12:01:31.843Z,99828.72
2022-11-17T12:04:36.151Z,99834.81
2022-11-17T12:07:48.123Z,99829.75
2022-11-17T12:10:57.986Z,99833.28
2022-11-17T12:14:01.947Z,99892.94
2022-11-17T12:17:17.600Z,99839.34
2022-11-17T12:20:31.249Z,99830.66
2022-11-17T12:23:52.866Z,99845.31
2022-11-17T12:27:32.571Z,99833.22
2022-11-17T12:30:33.861Z,99844.13
2022-11-17T12:33:53.675Z,99833.84
2022-11-17T12:37:20.636Z,99833.09
2022-11-17T12:40:53.043Z,99847.53
2022-11-17T12:44:46.496Z,99837.19
2022-11-17T12:47:59.465Z,99840.50
2022-11-17T12:51:27.293Z,99845.38
2022-11-17T12:54:47.449Z,99842.03
2022-11-17T12:57:57.857Z,99856.53
2022-11-17T13:01:42.116Z,99836.09
2022-11-17T13:04:49.430Z,99849.00
2022-11-17T13:08:09.136Z,99844.72
2022-11-17T13:11:14.941Z,99869.44
2022-11-17T13:14:17.106Z,99843.38
2022-11-17T13:17:20.390Z,99851.97
2022-11-17T13:20:29.529Z,99847.09
2022-11-17T13:23:32.798Z,99834.44
2022-11-17T13:26:34.167Z,99849.81
2022-11-17T13:29:35.591Z,99850.78
2022-11-17T13:32:39.303Z,99855.06
2022-11-17T13:35:40.654Z,99853.44
2022-11-17T13:38:53.327Z,99869.78
2022-11-17T13:41:56.579Z,99864.91
2022-11-17T13:45:01.686Z,99871.72
2022-11-17T13:48:03.091Z,99870.91
2022-11-17T13:51:19.918Z,99885.28
2022-11-17T13:54:21.319Z,99881.09
2022-11-17T13:57:27.085Z,99888.69
2022-11-17T14:00:29.919Z,99880.22
2022-11-17T14:03:32.639Z,99885.31
2022-11-17T14:06:52.791Z,99882.81
2022-11-17T14:10:13.392Z,99885.41
2022-11-17T14:13:23.697Z,99896.41
2022-11-17T14:16:38.134Z,99892.97
2022-11-17T14:19:40.560Z,99895.47
2022-11-17T14:23:07.632Z,99890.44
2022-11-17T14:26:21.868Z,99894.81
2022-11-17T14:29:23.453Z,99893.31
2022-11-17T14:32:24.919Z,99902.59
2022-11-17T14:35:26.247Z,99918.03
2022-11-17T14:38:27.820Z,99912.19
2022-11-17T14:41:29.369Z,99913.94
2022-11-17T14:44:30.709Z,99908.84
2022-11-17T14:47:32.060Z,99908.91
2022-11-17T14:50:33.665Z,99917.47
2022-11-17T14:53:39.206Z,99909.00
2022-11-17T14:56:43.170Z,99923.56
2022-11-17T14:59:44.554Z,99916.91
2022-11-17T15:02:46.124Z,99929.59
2022-11-17T15:05:47.490Z,99916.91
2022-11-17T15:09:00.508Z,99928.03
2022-11-17T15:12:01.860Z,99933.97
2022-11-17T15:15:04.123Z,99928.03
2022-11-17T15:18:05.603Z,99938.31
2022-11-17T15:21:09.706Z,99934.09
2022-11-17T15:24:11.091Z,99923.09
2022-11-17T15:27:12.990Z,99932.53
2022-11-17T15:30:14.650Z,99936.81
2022-11-17T15:33:16.198Z,99942.72
2022-11-17T15:36:19.629Z,99945.28
2022-11-17T15:39:20.995Z,99964.88
2022-11-17T15:42:22.372Z,99943.59
2022-11-17T15:45:23.751Z,99950.38
2022-11-17T15:48:25.128Z,99954.59
2022-11-17T15:51:27.701Z,99963.91
2022-11-17T15:54:29.098Z,99952.06
2022-11-17T15:57:30.547Z,99961.41
2022-11-17T16:00:33.352Z,99966.50
2022-11-17T16:03:34.941Z,99959.75
2022-11-17T16:06:38.176Z,99959.69
2022-11-17T16:09:39.569Z,99969.16
2022-11-17T16:12:40.977Z,99962.31
2022-11-17T16:15:42.298Z,99969.06
2022-11-17T16:18:43.682Z,99961.47
2022-11-17T16:21:45.069Z,99958.03
2022-11-17T16:24:46.450Z,99961.41
2022-11-17T16:27:47.810Z,99968.19
2022-11-17T16:30:49.174Z,99971.53
2022-11-17T16:33:56.243Z,99960.47
2022-11-17T16:36:57.626Z,99959.66
2022-11-17T16:39:59.002Z,99959.69
2022-11-17T16:43:00.437Z,99964.81
2022-11-17T16:46:21.027Z,99962.19
2022-11-17T16:49:22.448Z,99963.91
2022-11-17T16:52:23.802Z,99963.88
2022-11-17T16:55:25.115Z,99958.78
2022-11-17T16:58:26.451Z,99956.22
2022-11-17T17:01:30.036Z,99957.91
2022-11-17T17:04:31.584Z,99951.06
2022-11-17T17:07:33.067Z,99976.50
2022-11-17T17:10:34.515Z,99956.22
2022-11-17T17:13:36.112Z,99982.53
2022-11-17T17:16:37.920Z,99971.53
2022-11-17T17:19:39.296Z,99982.53
2022-11-17T17:22:40.649Z,99971.53
2022-11-17T17:25:41.996Z,99985.22
2022-11-17T17:28:45.589Z,99976.56
2022-11-17T17:31:46.902Z,99980.69
2022-11-17T17:34:48.236Z,99980.69
2022-11-17T17:37:49.606Z,99979.88
2022-11-17T17:40:50.952Z,99987.41
2022-11-17T17:43:57.929Z,100002.66
2022-11-17T17:46:59.328Z,99989.91
2022-11-17T17:50:00.693Z,99992.44
2022-11-17T17:53:02.028Z,100006.84
2022-11-17T17:56:06.314Z,100001.69
2022-11-17T17:59:07.804Z,99988.09
2022-11-17T18:02:09.669Z,100005.13
2022-11-17T18:05:11.011Z,100009.50
2022-11-17T18:08:12.606Z,100013.84
2022-11-17T18:11:17.149Z,99999.34
2022-11-17T18:14:20.051Z,100023.19
2022-11-17T18:17:21.433Z,100027.47
2022-11-17T18:20:22.887Z,100025.78
2022-11-17T18:23:24.278Z,100021.50
2022-11-17T18:26:29.347Z,100028.28
2022-11-17T18:29:30.821Z,100015.47
2022-11-17T18:32:32.204Z,100029.09
2022-11-17T18:35:35.107Z,100031.59
2022-11-17T18:38:37.295Z,100030.84
2022-11-17T18:41:38.627Z,100044.44
2022-11-17T18:44:40.059Z,100043.59
2022-11-17T18:47:41.585Z,100049.50
2022-11-17T18:51:17.278Z,100062.31
2022-11-17T18:54:07.462Z,100035.06
2022-11-17T18:57:08.882Z,100046.94
2022-11-17T19:00:10.797Z,100055.34
2022-11-17T19:03:12.208Z,100050.31
2022-11-17T19:06:15.803Z,100045.28
2022-11-17T19:09:17.439Z,100044.34
2022-11-17T19:12:19.132Z,100049.50
2022-11-17T19:15:20.512Z,100057.97
2022-11-17T19:18:21.943Z,100065.63
2022-11-17T19:21:26.061Z,100059.75
2022-11-17T19:24:27.410Z,100058.91
2022-11-17T19:27:28.745Z,100059.84
2022-11-17T19:30:30.213Z,100052.22
2022-11-17T19:33:33.217Z,100062.50
2022-11-17T19:36:34.898Z,100096.63
2022-11-17T19:39:36.237Z,100076.28
2022-11-17T19:42:37.605Z,100065.38
2022-11-17T19:45:38.978Z,100068.94
2022-11-17T19:48:41.161Z,100077.47
2022-11-17T19:51:42.554Z,100074.13
2022-11-17T19:54:43.946Z,100081.84
2022-11-17T19:57:45.334Z,100080.22
2022-11-17T20:00:47.880Z,100086.16
2022-11-17T20:03:49.762Z,100100.66
2022-11-17T20:06:51.243Z,100109.19
2022-11-17T20:09:52.638Z,100110.03
2022-11-17T20:12:54.039Z,100099.91
2022-11-17T20:15:56.735Z,100103.44
2022-11-17T20:19:00.568Z,100097.69
2022-11-17T20:22:01.934Z,100103.84
2022-11-17T20:25:03.897Z,100091.06
2022-11-17T20:28:05.311Z,100097.13
2022-11-17T20:31:14.750Z,100104.72
2022-11-17T20:34:16.220Z,100110.75
2022-11-17T20:37:17.611Z,100102.28
2022-11-17T20:40:18.963Z,100099.81
2022-11-17T20:43:20.401Z,100105.66
2022-11-17T20:46:23.234Z,100096.28
2022-11-17T20:49:24.832Z,100102.28
2022-11-17T20:52:26.156Z,100097.25
2022-11-17T20:55:27.498Z,100112.53
2022-11-17T20:58:29.394Z,100122.00
2022-11-17T21:01:30.821Z,100132.31
2022-11-17T21:04:32.241Z,100138.28
2022-11-17T21:07:33.640Z,100145.03
2022-11-17T21:10:35.568Z,100144.19
2022-11-17T21:13:37.775Z,100152.72
2022-11-17T21:16:41.772Z,100143.38
2022-11-17T21:19:43.148Z,100145.97
2022-11-17T21:22:44.494Z,100158.63
2022-11-17T21:25:45.870Z,100156.88
2022-11-17T21:28:47.257Z,100162.13
2022-11-17T21:31:48.597Z,100183.47
2022-11-17T21:34:50.067Z,100157.81
2022-11-17T21:37:51.858Z,100175.69
2022-11-17T21:40:53.224Z,100152.91
2022-11-17T21:43:57.978Z,100166.47
2022-11-17T21:46:59.377Z,100174.16
2022-11-17T21:50:00.778Z,100170.75
2022-11-17T21:53:02.157Z,100179.31
2022-11-17T21:56:05.671Z,100187.81
2022-11-17T21:59:12.088Z,100189.50
2022-11-17T22:02:13.462Z,100178.47
2022-11-17T22:05:14.891Z,100188.75
2022-11-17T22:08:16.257Z,100178.53
2022-11-17T22:11:20.524Z,100207.28
2022-11-17T22:14:22.491Z,100188.75
2022-11-17T22:17:23.863Z,100194.69
2022-11-17T22:20:25.280Z,100204.03
2022-11-17T22:23:28.073Z,100204.94
2022-11-17T22:26:29.588Z,100210.94
2022-11-17T22:29:30.978Z,100203.41
2022-11-17T22:32:32.324Z,100205.94
2022-11-17T22:35:33.717Z,100208.50
2022-11-17T22:38:35.091Z,100221.31
2022-11-17T22:41:36.772Z,100221.47
2022-11-17T22:44:38.153Z,100218.91
2022-11-17T22:47:39.573Z,100225.75
2022-11-17T22:50:40.934Z,100230.78
2022-11-17T22:53:42.314Z,100239.28
2022-11-17T22:56:43.665Z,100236.75
2022-11-17T22:59:45.058Z,100238.38
2022-11-17T23:02:46.481Z,100240.28
2022-11-17T23:05:47.959Z,100241.88
2022-11-17T23:08:49.715Z,100243.66
2022-11-17T23:11:51.182Z,100236.88
2022-11-17T23:14:52.532Z,100250.47
2022-11-17T23:17:54.525Z,100253.03
2022-11-17T23:20:55.851Z,100244.56
2022-11-17T23:23:57.268Z,100244.53
2022-11-17T23:26:58.597Z,100248.72
2022-11-17T23:30:00.024Z,100243.56
2022-11-17T23:33:01.418Z,100243.50
2022-11-17T23:36:04.532Z,100256.25
2022-11-17T23:39:06.068Z,100241.75
2022-11-17T23:42:07.441Z,100263.84
2022-11-17T23:45:09.636Z,100247.75
2022-11-17T23:48:11.006Z,100257.84
2022-11-17T23:51:19.841Z,100266.31
2022-11-17T23:54:21.174Z,100281.72
2022-11-17T23:57:22.509Z,100268.94
